createdAt,value
2022-12-31T00:02:04.440Z,2.10
2022-12-31T00:04:48.533Z,2.25
2022-12-31T00:10:13.593Z,2.28
2022-12-31T00:12:56.291Z,2.35
2022-12-31T00:15:38.992Z,3.22
2022-12-31T00:18:21.758Z,2.40
2022-12-31T00:21:09.926Z,2.53
2022-12-31T00:23:52.788Z,4.53
2022-12-31T00:26:35.971Z,2.63
2022-12-31T00:29:18.610Z,3.17
2022-12-31T00:32:01.242Z,3.05
2022-12-31T00:34:43.947Z,2.22
2022-12-31T00:37:27.934Z,2.58
2022-12-31T00:40:11.409Z,2.20
2022-12-31T00:42:54.047Z,2.33
2022-12-31T00:45:36.667Z,2.58
2022-12-31T00:48:19.337Z,2.20
2022-12-31T00:51:02.348Z,2.40
2022-12-31T00:53:46.659Z,2.60
2022-12-31T00:56:29.708Z,2.65
2022-12-31T00:59:12.350Z,3.55
2022-12-31T01:01:55.029Z,2.83
2022-12-31T01:04:37.738Z,3.55
2022-12-31T01:07:20.391Z,3.53
2022-12-31T01:10:05.018Z,3.55
2022-12-31T01:12:47.678Z,3.17
2022-12-31T01:15:33.550Z,4.45
2022-12-31T01:18:16.169Z,2.67
2022-12-31T01:21:01.962Z,2.75
2022-12-31T01:23:44.579Z,3.60
2022-12-31T01:26:28.848Z,4.00
2022-12-31T01:29:11.594Z,2.78
2022-12-31T01:31:54.292Z,4.07
2022-12-31T01:34:36.955Z,2.47
2022-12-31T01:37:19.553Z,4.05
2022-12-31T01:40:02.171Z,2.10
2022-12-31T01:42:46.141Z,2.38
2022-12-31T01:45:28.784Z,3.55
2022-12-31T01:48:12.971Z,2.10
2022-12-31T01:50:55.870Z,2.35
2022-12-31T01:53:40.902Z,2.17
2022-12-31T01:56:24.408Z,2.78
2022-12-31T01:59:09.827Z,2.67
2022-12-31T02:01:53.812Z,1.63
2022-12-31T02:04:36.592Z,2.97
2022-12-31T02:07:19.220Z,1.67
2022-12-31T02:10:02.102Z,1.85
2022-12-31T02:12:44.831Z,2.90
2022-12-31T02:15:32.854Z,3.15
2022-12-31T02:18:20.918Z,1.70
2022-12-31T02:21:18.640Z,2.72
2022-12-31T02:24:16.383Z,2.08
2022-12-31T02:27:00.785Z,3.35
2022-12-31T02:29:58.197Z,4.28
2022-12-31T02:32:51.564Z,2.22
2022-12-31T02:35:34.871Z,3.25
2022-12-31T02:38:20.395Z,3.80
2022-12-31T02:41:02.983Z,2.78
2022-12-31T02:43:47.178Z,2.05
2022-12-31T02:46:32.260Z,2.00
2022-12-31T02:49:21.516Z,2.30
2022-12-31T02:52:07.686Z,2.50
2022-12-31T02:54:52.643Z,2.78
2022-12-31T02:57:39.456Z,2.33
2022-12-31T03:00:39.853Z,2.47
2022-12-31T03:03:22.657Z,2.03
2022-12-31T03:06:08.226Z,1.85
2022-12-31T03:09:08.397Z,2.13
2022-12-31T03:12:08.373Z,2.20
2022-12-31T03:14:50.991Z,2.25
2022-12-31T03:17:33.568Z,1.90
2022-12-31T03:20:33.561Z,3.92
2022-12-31T03:23:18.996Z,1.70
2022-12-31T03:26:01.245Z,3.13
2022-12-31T03:28:47.550Z,3.35
2022-12-31T03:31:30.452Z,2.10
2022-12-31T03:34:15.586Z,2.47
2022-12-31T03:36:58.141Z,2.25
2022-12-31T03:39:42.483Z,1.45
2022-12-31T03:42:25.127Z,2.38
2022-12-31T03:45:08.379Z,1.30
2022-12-31T03:47:50.931Z,1.95
2022-12-31T03:50:34.028Z,1.77
2022-12-31T03:53:16.790Z,1.90
2022-12-31T03:56:00.684Z,1.55
2022-12-31T03:58:43.234Z,1.42
2022-12-31T04:01:26.198Z,1.65
2022-12-31T04:04:08.853Z,1.85
2022-12-31T04:06:51.431Z,1.50
2022-12-31T04:09:34.047Z,1.90
2022-12-31T04:12:17.996Z,1.67
2022-12-31T04:15:00.598Z,1.60
2022-12-31T04:17:43.216Z,2.60
2022-12-31T04:20:25.785Z,0.88
2022-12-31T04:23:08.309Z,1.17
2022-12-31T04:25:50.899Z,1.08
2022-12-31T04:28:34.870Z,2.08
2022-12-31T04:31:17.454Z,1.60
2022-12-31T04:34:00.039Z,2.78
2022-12-31T04:36:42.647Z,1.20
2022-12-31T04:39:25.777Z,1.38
2022-12-31T04:42:08.330Z,3.05
2022-12-31T04:44:52.219Z,2.00
2022-12-31T04:47:34.860Z,1.20
2022-12-31T04:50:17.470Z,1.35
2022-12-31T04:53:00.187Z,1.00
2022-12-31T04:55:42.758Z,2.20
2022-12-31T04:58:25.372Z,2.05
2022-12-31T05:01:09.586Z,1.02
2022-12-31T05:03:52.680Z,1.55
2022-12-31T05:06:35.403Z,1.25
2022-12-31T05:09:17.974Z,1.48
2022-12-31T05:12:00.586Z,1.35
2022-12-31T05:14:43.189Z,1.35
2022-12-31T05:17:27.117Z,0.90
2022-12-31T05:20:09.966Z,0.93
2022-12-31T05:22:52.523Z,1.38
2022-12-31T05:25:35.237Z,0.70
2022-12-31T05:28:17.832Z,1.27
2022-12-31T05:31:00.752Z,1.15
2022-12-31T05:33:44.706Z,0.90
2022-12-31T05:36:27.264Z,1.13
2022-12-31T05:39:09.810Z,0.70
2022-12-31T05:41:52.366Z,0.95
2022-12-31T05:44:34.914Z,1.38
2022-12-31T05:47:17.492Z,2.38
2022-12-31T05:50:01.459Z,1.48
2022-12-31T05:52:47.677Z,2.28
2022-12-31T05:55:30.482Z,2.90
2022-12-31T05:58:13.220Z,0.95
2022-12-31T06:00:55.876Z,0.80
2022-12-31T06:03:38.506Z,1.15
2022-12-31T06:06:22.488Z,1.70
2022-12-31T06:09:05.106Z,1.10
2022-12-31T06:11:47.999Z,0.60
2022-12-31T06:14:30.561Z,0.55
2022-12-31T06:17:13.186Z,0.70
2022-12-31T06:19:55.744Z,1.08
2022-12-31T06:22:39.674Z,1.73
2022-12-31T06:25:22.241Z,1.33
2022-12-31T06:28:04.994Z,1.67
2022-12-31T06:30:47.858Z,2.00
2022-12-31T06:33:30.808Z,0.82
2022-12-31T06:36:14.233Z,0.88
2022-12-31T06:38:58.158Z,1.00
2022-12-31T06:41:40.750Z,0.73
2022-12-31T06:44:23.377Z,1.13
2022-12-31T06:47:05.985Z,0.50
2022-12-31T06:49:48.574Z,1.13
2022-12-31T06:52:31.206Z,0.88
2022-12-31T06:55:16.049Z,0.73
2022-12-31T06:57:58.923Z,1.20
2022-12-31T07:00:44.189Z,0.55
2022-12-31T07:03:31.983Z,0.57
2022-12-31T07:06:15.979Z,0.70
2022-12-31T07:09:02.544Z,0.57
2022-12-31T07:11:53.055Z,1.27
2022-12-31T07:14:37.107Z,0.65
2022-12-31T07:17:27.145Z,2.45
2022-12-31T07:20:10.712Z,0.57
2022-12-31T07:22:53.600Z,1.33
2022-12-31T07:25:36.800Z,3.60
2022-12-31T07:28:23.901Z,0.50
2022-12-31T07:31:08.773Z,1.10
2022-12-31T07:33:56.154Z,0.30
2022-12-31T07:36:53.621Z,0.40
2022-12-31T07:39:40.039Z,1.50
2022-12-31T07:42:25.174Z,0.68
2022-12-31T07:45:13.352Z,0.30
2022-12-31T07:48:02.112Z,1.95
2022-12-31T07:50:45.507Z,0.73
2022-12-31T07:53:28.412Z,0.30
2022-12-31T07:56:11.314Z,1.13
2022-12-31T07:59:03.303Z,0.40
2022-12-31T08:01:50.553Z,0.70
2022-12-31T08:04:36.369Z,0.40
2022-12-31T08:07:22.687Z,0.30
2022-12-31T08:10:14.031Z,1.15
2022-12-31T08:13:02.597Z,0.50
2022-12-31T08:15:45.393Z,0.95
2022-12-31T08:18:29.609Z,1.40
2022-12-31T08:21:15.870Z,0.40
2022-12-31T08:24:02.559Z,0.30
2022-12-31T08:26:53.036Z,0.57
2022-12-31T08:29:40.395Z,0.20
2022-12-31T08:32:24.883Z,0.40
2022-12-31T08:35:16.235Z,0.63
2022-12-31T08:38:03.580Z,0.98
2022-12-31T08:40:51.753Z,0.95
2022-12-31T08:43:41.590Z,0.88
2022-12-31T08:46:26.741Z,0.88
2022-12-31T08:49:10.045Z,1.38
2022-12-31T08:51:54.542Z,0.88
2022-12-31T08:54:37.403Z,0.60
2022-12-31T08:57:24.572Z,0.95
2022-12-31T09:00:10.708Z,1.20
2022-12-31T09:02:59.529Z,1.30
2022-12-31T09:05:48.697Z,0.47
2022-12-31T09:08:38.136Z,0.95
2022-12-31T09:11:23.765Z,0.88
2022-12-31T09:14:14.144Z,0.98
2022-12-31T09:17:00.519Z,1.20
2022-12-31T09:19:43.144Z,0.43
2022-12-31T09:22:25.923Z,0.52
2022-12-31T09:25:13.448Z,0.50
2022-12-31T09:28:09.515Z,0.50
2022-12-31T09:30:55.071Z,0.60
2022-12-31T09:33:41.453Z,0.55
2022-12-31T09:36:28.777Z,0.75
2022-12-31T09:39:13.533Z,0.40
2022-12-31T09:42:05.581Z,0.50
2022-12-31T09:44:55.680Z,1.23
2022-12-31T09:47:48.136Z,0.57
2022-12-31T09:50:43.707Z,1.95
2022-12-31T09:53:30.755Z,0.55
2022-12-31T09:56:16.861Z,0.40
2022-12-31T09:59:03.853Z,0.65
2022-12-31T10:01:50.696Z,0.70
2022-12-31T10:04:44.597Z,0.98
2022-12-31T10:07:36.326Z,0.75
2022-12-31T10:10:21.569Z,1.77
2022-12-31T10:13:15.418Z,0.80
2022-12-31T10:16:24.985Z,1.08
2022-12-31T10:19:41.671Z,1.23
2022-12-31T10:22:43.727Z,1.33
2022-12-31T10:25:39.661Z,1.80
2022-12-31T10:28:31.203Z,2.13
2022-12-31T10:31:15.716Z,1.77
2022-12-31T10:34:12.882Z,1.30
2022-12-31T10:36:59.026Z,1.17
2022-12-31T10:39:47.204Z,2.03
2022-12-31T10:42:41.520Z,1.25
2022-12-31T10:45:47.886Z,1.30
2022-12-31T10:48:48.087Z,0.90
2022-12-31T10:51:49.297Z,0.75
2022-12-31T10:54:50.897Z,0.85
2022-12-31T10:57:48.368Z,1.02
2022-12-31T11:00:31.938Z,0.93
2022-12-31T11:03:32.998Z,0.50
2022-12-31T11:06:39.597Z,0.47
2022-12-31T11:09:40.850Z,0.40
2022-12-31T11:12:38.325Z,1.23
2022-12-31T11:15:36.054Z,0.30
2022-12-31T11:18:24.390Z,0.40
2022-12-31T11:21:15.338Z,1.33
2022-12-31T11:24:05.001Z,0.40
2022-12-31T11:26:53.542Z,0.43
2022-12-31T11:29:44.375Z,0.47
2022-12-31T11:32:34.430Z,1.13
2022-12-31T11:35:21.703Z,0.40
2022-12-31T11:52:34.035Z,0.60
2022-12-31T11:55:24.092Z,0.60
2022-12-31T11:58:12.576Z,1.52
2022-12-31T12:00:57.038Z,0.63
2022-12-31T12:03:43.593Z,0.40
2022-12-31T12:06:29.297Z,0.35
2022-12-31T12:09:16.631Z,0.63
2022-12-31T12:12:00.252Z,0.40
2022-12-31T12:14:45.045Z,0.68
2022-12-31T12:17:32.218Z,0.70
2022-12-31T12:20:16.256Z,0.95
2022-12-31T12:22:59.750Z,0.55
2022-12-31T12:25:44.331Z,0.70
2022-12-31T12:28:28.231Z,0.57
2022-12-31T12:31:18.341Z,0.50
2022-12-31T12:34:01.012Z,0.73
2022-12-31T12:36:47.322Z,0.80
2022-12-31T12:39:30.750Z,0.73
2022-12-31T12:42:15.399Z,0.50
2022-12-31T12:45:05.935Z,0.85
2022-12-31T12:47:50.045Z,0.63
2022-12-31T12:50:35.434Z,0.70
2022-12-31T12:53:38.814Z,0.40
2022-12-31T12:56:30.586Z,1.10
2022-12-31T12:59:34.140Z,1.85
2022-12-31T13:02:28.510Z,0.50
2022-12-31T13:05:21.680Z,1.60
2022-12-31T13:08:12.207Z,0.40
2022-12-31T13:11:04.752Z,0.85
2022-12-31T13:13:51.973Z,0.43
2022-12-31T13:16:37.547Z,2.47
2022-12-31T13:19:30.211Z,0.55
2022-12-31T13:22:16.367Z,0.50
2022-12-31T13:25:01.927Z,0.55
2022-12-31T13:27:46.022Z,2.10
2022-12-31T13:30:31.896Z,1.38
2022-12-31T13:33:17.060Z,0.90
2022-12-31T13:36:02.351Z,0.68
2022-12-31T13:38:47.034Z,2.50
2022-12-31T13:41:31.459Z,0.70
2022-12-31T13:44:17.471Z,0.88
2022-12-31T13:47:03.446Z,0.50
2022-12-31T13:49:48.816Z,2.08
2022-12-31T13:52:35.644Z,1.10
2022-12-31T13:55:19.974Z,0.60
2022-12-31T13:58:06.687Z,0.70
2022-12-31T14:00:51.595Z,1.95
2022-12-31T14:03:39.272Z,1.02
2022-12-31T14:06:24.918Z,0.50
2022-12-31T14:09:11.489Z,0.60
2022-12-31T14:12:10.655Z,0.70
2022-12-31T14:15:01.689Z,1.05
2022-12-31T14:17:48.503Z,1.92
2022-12-31T14:20:37.763Z,1.13
2022-12-31T14:23:22.948Z,0.98
2022-12-31T14:26:08.116Z,0.93
2022-12-31T14:28:54.289Z,1.90
2022-12-31T14:31:45.832Z,1.20
2022-12-31T14:34:34.942Z,0.60
2022-12-31T14:37:19.443Z,0.80
2022-12-31T14:40:07.379Z,1.35
2022-12-31T14:42:57.028Z,1.17
2022-12-31T14:45:47.377Z,1.35
2022-12-31T14:48:37.319Z,0.85
2022-12-31T14:51:20.703Z,3.35
2022-12-31T14:54:03.656Z,2.92
2022-12-31T14:56:46.450Z,1.23
2022-12-31T14:59:35.692Z,2.92
2022-12-31T15:02:27.427Z,1.20
2022-12-31T15:05:16.995Z,2.45
2022-12-31T15:08:33.118Z,1.13
2022-12-31T15:11:23.929Z,1.83
2022-12-31T15:14:26.430Z,2.05
2022-12-31T15:17:16.325Z,2.22
2022-12-31T15:20:17.435Z,3.40
2022-12-31T15:23:00.686Z,2.60
2022-12-31T15:25:47.907Z,2.55
2022-12-31T15:28:32.989Z,2.55
2022-12-31T15:31:19.019Z,1.70
2022-12-31T15:34:04.890Z,2.25
2022-12-31T15:36:52.962Z,1.90
2022-12-31T15:39:40.716Z,2.63
2022-12-31T15:42:39.923Z,1.67
2022-12-31T15:45:25.709Z,3.13
2022-12-31T15:48:09.954Z,2.75
2022-12-31T15:50:56.558Z,3.60
2022-12-31T15:53:40.592Z,2.85
2022-12-31T15:56:28.620Z,4.93
2022-12-31T15:59:14.059Z,2.35
2022-12-31T16:01:58.050Z,3.38
2022-12-31T16:04:42.739Z,4.13
2022-12-31T16:07:28.403Z,2.70
2022-12-31T16:10:16.636Z,2.30
2022-12-31T16:12:59.547Z,3.88
2022-12-31T16:15:42.358Z,3.33
2022-12-31T16:18:25.084Z,3.47
2022-12-31T16:21:07.897Z,4.38
2022-12-31T16:23:53.118Z,3.22
2022-12-31T16:26:39.978Z,3.50
2022-12-31T16:29:23.725Z,4.03
2022-12-31T16:32:11.970Z,2.65
2022-12-31T16:34:55.448Z,3.45
2022-12-31T16:37:38.125Z,3.80
2022-12-31T16:40:24.314Z,3.17
2022-12-31T16:43:19.618Z,3.40
2022-12-31T16:46:09.617Z,3.28
2022-12-31T16:48:54.250Z,3.72
2022-12-31T16:51:38.519Z,3.70
2022-12-31T16:54:22.469Z,3.30
2022-12-31T16:57:10.826Z,5.22
2022-12-31T16:59:55.115Z,4.28
2022-12-31T17:02:39.152Z,4.18
2022-12-31T17:05:22.880Z,4.90
2022-12-31T17:08:16.359Z,5.35
2022-12-31T17:10:59.193Z,4.53
2022-12-31T17:13:43.165Z,5.07
2022-12-31T17:16:26.098Z,3.92
2022-12-31T17:19:09.304Z,4.75
2022-12-31T17:21:52.034Z,5.25
2022-12-31T17:24:35.027Z,3.75
2022-12-31T17:27:17.862Z,4.43
2022-12-31T17:30:15.410Z,3.47
2022-12-31T17:33:01.204Z,4.95
2022-12-31T17:35:45.436Z,6.10
2022-12-31T17:38:30.504Z,3.25
2022-12-31T17:41:17.136Z,4.50
2022-12-31T17:43:59.839Z,2.92
2022-12-31T17:46:43.201Z,2.15
2022-12-31T17:49:30.611Z,3.05
2022-12-31T17:52:14.243Z,2.85
2022-12-31T17:54:56.937Z,3.92
2022-12-31T17:57:44.366Z,2.88
2022-12-31T18:00:27.955Z,2.80
2022-12-31T18:03:11.036Z,1.88
2022-12-31T18:05:55.239Z,1.90
2022-12-31T18:08:38.079Z,2.38
2022-12-31T18:11:21.509Z,2.05
2022-12-31T18:14:04.314Z,2.40
2022-12-31T18:16:48.238Z,2.58
2022-12-31T18:20:03.023Z,3.72
2022-12-31T18:22:35.196Z,3.13
2022-12-31T18:25:19.109Z,3.17
2022-12-31T18:28:01.759Z,4.00
2022-12-31T18:30:44.730Z,3.72
2022-12-31T18:33:28.512Z,6.35
2022-12-31T18:36:12.854Z,8.13
2022-12-31T18:38:56.907Z,6.20
2022-12-31T18:41:40.875Z,6.28
2022-12-31T18:44:23.598Z,5.78
2022-12-31T18:47:07.091Z,4.95
2022-12-31T18:49:49.910Z,6.20
2022-12-31T18:52:32.633Z,9.23
2022-12-31T18:55:23.067Z,7.50
2022-12-31T18:58:05.843Z,8.48
2022-12-31T19:00:49.208Z,10.95
2022-12-31T19:03:32.024Z,10.38
2022-12-31T19:06:15.232Z,9.10
2022-12-31T19:09:00.868Z,12.82
2022-12-31T19:11:45.136Z,7.57
2022-12-31T19:14:28.795Z,9.35
2022-12-31T19:17:11.547Z,9.48
2022-12-31T19:19:54.201Z,10.40
2022-12-31T19:22:36.920Z,10.43
2022-12-31T19:25:20.600Z,9.32
2022-12-31T19:28:06.858Z,12.02
2022-12-31T19:30:49.759Z,12.35
2022-12-31T19:33:32.404Z,9.32
2022-12-31T19:36:16.107Z,8.65
2022-12-31T19:38:58.839Z,10.20
2022-12-31T19:41:42.604Z,10.25
2022-12-31T19:44:26.831Z,12.73
2022-12-31T19:47:12.313Z,9.80
2022-12-31T19:49:55.014Z,11.73
2022-12-31T19:52:38.045Z,11.25
2022-12-31T19:55:21.557Z,9.02
2022-12-31T19:58:04.192Z,9.23
2022-12-31T20:00:54.844Z,13.23
2022-12-31T20:03:39.712Z,9.40
2022-12-31T20:06:22.653Z,7.22
2022-12-31T20:09:05.711Z,12.60
2022-12-31T20:11:48.429Z,7.68
2022-12-31T20:14:31.131Z,5.35
2022-12-31T20:17:15.265Z,5.50
2022-12-31T20:19:58.005Z,8.02
2022-12-31T20:22:40.726Z,7.40
2022-12-31T20:25:23.414Z,8.18
2022-12-31T20:28:06.845Z,9.45
2022-12-31T20:30:49.657Z,7.47
2022-12-31T20:33:34.001Z,8.45
2022-12-31T20:36:17.742Z,7.50
2022-12-31T20:39:00.480Z,7.00
2022-12-31T20:41:43.174Z,8.63
2022-12-31T20:44:25.898Z,7.80
2022-12-31T20:47:08.597Z,6.30
2022-12-31T20:50:10.839Z,7.55
2022-12-31T20:52:54.536Z,10.68
2022-12-31T20:55:38.644Z,6.97
2022-12-31T20:58:21.570Z,8.45
2022-12-31T21:01:06.548Z,4.82
2022-12-31T21:04:06.937Z,8.02
2022-12-31T21:06:52.224Z,5.82
2022-12-31T21:09:34.962Z,7.75
2022-12-31T21:12:34.986Z,7.90
2022-12-31T21:15:17.791Z,7.85
2022-12-31T21:18:00.493Z,7.07
2022-12-31T21:20:46.405Z,9.68
2022-12-31T21:23:30.517Z,7.50
2022-12-31T21:26:13.190Z,7.72
2022-12-31T21:28:55.948Z,6.88
2022-12-31T21:31:38.668Z,9.45
2022-12-31T21:34:21.407Z,8.13
2022-12-31T21:37:04.105Z,9.93
2022-12-31T21:39:48.175Z,5.85
2022-12-31T21:42:30.873Z,7.30
2022-12-31T21:45:13.585Z,7.35
2022-12-31T21:48:22.043Z,7.05
2022-12-31T21:51:09.691Z,6.45
2022-12-31T21:53:52.594Z,8.20
2022-12-31T21:56:35.644Z,6.32
2022-12-31T21:59:35.611Z,6.63
2022-12-31T22:02:35.806Z,8.45
2022-12-31T22:05:24.992Z,8.07
2022-12-31T22:08:07.975Z,6.30
2022-12-31T22:10:53.074Z,4.65
2022-12-31T22:13:37.805Z,6.78
2022-12-31T22:16:21.102Z,7.45
2022-12-31T22:19:03.858Z,6.93
2022-12-31T22:21:46.594Z,8.57
2022-12-31T22:24:29.207Z,5.07
2022-12-31T22:27:29.133Z,7.65
2022-12-31T22:30:13.760Z,7.05
2022-12-31T22:32:56.426Z,6.07
2022-12-31T22:35:39.079Z,7.38
2022-12-31T22:38:21.780Z,5.47
2022-12-31T22:41:05.840Z,6.22
2022-12-31T22:43:49.827Z,10.68
2022-12-31T22:46:34.218Z,5.47
2022-12-31T22:49:20.027Z,7.43
2022-12-31T22:52:07.069Z,4.35
2022-12-31T22:54:51.390Z,6.13
2022-12-31T22:57:34.186Z,6.60
2022-12-31T23:00:17.025Z,8.20
2022-12-31T23:03:01.177Z,7.32
2022-12-31T23:05:44.211Z,7.53
2022-12-31T23:08:27.000Z,7.63
2022-12-31T23:11:09.683Z,12.82
2022-12-31T23:14:09.634Z,11.85
2022-12-31T23:17:31.452Z,13.63
2022-12-31T23:20:32.596Z,21.13
2022-12-31T23:23:17.681Z,26.02
2022-12-31T23:26:01.607Z,25.73
2022-12-31T23:28:44.284Z,28.30
2022-12-31T23:31:28.825Z,26.85
2022-12-31T23:34:11.598Z,24.77
2022-12-31T23:36:55.635Z,21.75
2022-12-31T23:39:38.349Z,21.75
2022-12-31T23:42:21.115Z,18.15
2022-12-31T23:45:04.006Z,21.15
2022-12-31T23:47:46.721Z,17.35
2022-12-31T23:50:29.618Z,20.40
2022-12-31T23:53:13.657Z,13.07
2022-12-31T23:55:56.477Z,14.98
2022-12-31T23:58:39.188Z,20.10
